Time;durP1;ratioP1;P1;durP2;ratioP2;P2;SDS_P1;SDS_P2;PMS_P1;PMS_P2;Temp;Humidity;BMP_temperature;BMP_pressure;BME280_temperature;BME280_humidity;BME280_pressure;Samples;Min_cycle;Max_cycle;Signal;HPM_P1;HPM_P2
2021/12/28 00:01:27;;;;;;;11.33;2.50;;;10.50;99.90;;;;;;4979280;28;20437;-51
2021/12/28 00:03:53;;;;;;;11.90;2.50;;;10.50;99.90;;;;;;4976522;28;20449;-53
2021/12/28 00:06:19;;;;;;;12.67;2.90;;;10.50;99.90;;;;;;4980472;28;20459;-53
2021/12/28 00:08:46;;;;;;;14.17;2.80;;;10.50;99.90;;;;;;4976837;28;20439;-55
2021/12/28 00:11:12;;;;;;;13.20;2.83;;;10.50;99.90;;;;;;4979349;28;20433;-54
2021/12/28 00:13:39;;;;;;;7.03;2.70;;;10.60;99.90;;;;;;4978126;28;20480;-52
2021/12/28 00:18:32;;;;;;;5.00;2.30;;;10.50;99.90;;;;;;4979152;28;20433;-53
2021/12/28 00:20:59;;;;;;;15.07;3.00;;;10.50;99.90;;;;;;4978634;28;20868;-55
2021/12/28 00:23:36;;;;;;;7.50;2.63;;;10.50;99.90;;;;;;4977238;28;20878;-51
2021/12/28 00:26:03;;;;;;;13.13;2.70;;;10.50;99.90;;;;;;4976650;28;20463;-54
2021/12/28 00:28:28;;;;;;;8.80;3.00;;;10.50;99.90;;;;;;4980807;28;20560;-51
2021/12/28 00:30:54;;;;;;;9.90;3.00;;;10.50;99.90;;;;;;4976679;28;20449;-53
2021/12/28 00:33:22;;;;;;;5.77;2.93;;;10.40;99.90;;;;;;4976486;28;20913;-52
2021/12/28 00:35:47;;;;;;;7.60;2.63;;;10.40;99.90;;;;;;4976752;28;20515;-55
2021/12/28 00:38:18;;;;;;;13.27;2.93;;;10.40;99.90;;;;;;4977627;28;20954;-51
2021/12/28 00:40:46;;;;;;;6.53;2.27;;;10.50;99.90;;;;;;4977283;28;20174;-55
2021/12/28 00:43:12;;;;;;;11.30;3.10;;;10.50;99.90;;;;;;4977859;28;20782;-52
2021/12/28 00:45:38;;;;;;;9.53;4.50;;;10.50;99.90;;;;;;4974025;28;20468;-55
2021/12/28 00:48:04;;;;;;;7.63;2.57;;;10.50;99.90;;;;;;4977993;28;20445;-50
2021/12/28 00:50:30;;;;;;;11.70;3.47;;;10.60;99.90;;;;;;4974976;28;20200;-53
2021/12/28 00:52:56;;;;;;;10.53;4.17;;;10.70;99.90;;;;;;4979027;28;20436;-53
2021/12/28 00:55:23;;;;;;;8.00;2.23;;;10.70;99.90;;;;;;4975706;28;20488;-55
2021/12/28 00:57:49;;;;;;;11.83;2.80;;;10.70;99.90;;;;;;4976673;28;20447;-55
2021/12/28 01:00:22;;;;;;;9.40;2.77;;;10.70;99.90;;;;;;4976157;28;20829;-52
2021/12/28 01:02:48;;;;;;;10.73;2.90;;;10.60;99.90;;;;;;4960235;28;20437;-54
2021/12/28 01:05:14;;;;;;;7.30;2.90;;;10.60;99.90;;;;;;4975500;28;20773;-54
2021/12/28 01:07:40;;;;;;;14.63;4.60;;;10.70;99.90;;;;;;4975978;28;20742;-49
2021/12/28 01:10:10;;;;;;;10.47;3.70;;;10.70;99.90;;;;;;4963844;28;20437;-52
2021/12/28 01:12:36;;;;;;;11.80;2.80;;;10.80;99.90;;;;;;4978362;28;20732;-55
2021/12/28 01:15:06;;;;;;;10.13;2.70;;;10.80;99.90;;;;;;4976467;28;21036;-53
2021/12/28 01:17:33;;;;;;;4.53;2.17;;;10.80;99.90;;;;;;4980315;28;20814;-53
2021/12/28 01:19:58;;;;;;;12.77;2.93;;;10.80;99.90;;;;;;4981356;28;20421;-53
2021/12/28 01:22:24;;;;;;;10.60;3.00;;;10.70;99.90;;;;;;4972974;28;21071;-54
2021/12/28 01:24:50;;;;;;;16.73;2.80;;;10.60;99.90;;;;;;4978061;28;20966;-56
2021/12/28 01:27:15;;;;;;;10.87;3.30;;;10.60;99.90;;;;;;4976745;28;20190;-55
2021/12/28 01:29:41;;;;;;;10.20;3.10;;;10.60;99.90;;;;;;4978312;28;20229;-57
2021/12/28 01:32:08;;;;;;;11.50;4.30;;;10.60;99.90;;;;;;4971164;28;20467;-53
2021/12/28 01:34:34;;;;;;;10.87;2.90;;;10.60;99.90;;;;;;4981402;28;20689;-52
2021/12/28 01:37:00;;;;;;;18.47;3.03;;;10.50;99.90;;;;;;4983727;28;20441;-52
2021/12/28 01:39:26;;;;;;;8.90;3.40;;;10.60;99.90;;;;;;4984719;28;20965;-49
2021/12/28 01:41:51;;;;;;;6.00;2.80;;;10.70;99.90;;;;;;4984089;28;20437;-51
2021/12/28 01:44:17;;;;;;;10.67;3.10;;;10.60;99.90;;;;;;4982362;28;20193;-53
2021/12/28 01:46:43;;;;;;;8.30;2.87;;;10.70;99.90;;;;;;4984374;28;20735;-54
2021/12/28 01:49:09;;;;;;;6.10;3.17;;;10.70;99.90;;;;;;4983464;28;20224;-54
2021/12/28 01:51:36;;;;;;;7.50;3.83;;;10.70;99.90;;;;;;4985801;28;20213;-49
2021/12/28 01:54:03;;;;;;;11.33;3.93;;;10.60;99.90;;;;;;4981276;28;20451;-50
2021/12/28 01:56:34;;;;;;;8.40;3.27;;;10.60;99.90;;;;;;4980854;28;20528;-52
2021/12/28 01:59:00;;;;;;;9.50;3.90;;;10.60;99.90;;;;;;4984029;28;20838;-54
2021/12/28 02:01:26;;;;;;;6.93;2.87;;;10.60;99.90;;;;;;4983687;28;20856;-52
2021/12/28 02:03:52;;;;;;;8.00;3.57;;;10.70;99.90;;;;;;4982451;28;20520;-52
2021/12/28 02:06:18;;;;;;;6.87;2.70;;;10.70;99.90;;;;;;4979827;28;20456;-52
2021/12/28 02:08:44;;;;;;;15.77;2.83;;;10.60;99.90;;;;;;4981333;28;20678;-55
2021/12/28 02:11:12;;;;;;;7.87;3.53;;;10.70;99.90;;;;;;4981191;28;20435;-53
2021/12/28 02:13:38;;;;;;;12.30;2.80;;;10.80;99.90;;;;;;4982301;28;20524;-52
2021/12/28 02:16:04;;;;;;;8.63;3.37;;;10.80;99.90;;;;;;4981385;28;21160;-55
2021/12/28 02:18:31;;;;;;;10.67;3.33;;;10.80;99.90;;;;;;4985004;28;20429;-55
2021/12/28 02:21:00;;;;;;;8.00;3.27;;;10.90;99.90;;;;;;4983805;28;20441;-54
2021/12/28 02:23:26;;;;;;;10.83;3.53;;;10.80;99.90;;;;;;4981102;28;21042;-54
2021/12/28 02:25:52;;;;;;;6.27;3.37;;;10.70;99.90;;;;;;4981049;28;20845;-50
2021/12/28 02:28:19;;;;;;;9.40;3.73;;;10.70;99.90;;;;;;4983076;28;20433;-55
2021/12/28 02:30:47;;;;;;;19.90;3.67;;;10.70;99.90;;;;;;4984179;28;20438;-54
2021/12/28 02:33:13;;;;;;;8.93;3.40;;;10.70;99.90;;;;;;4981699;28;20457;-53
2021/12/28 02:35:39;;;;;;;9.80;3.40;;;10.70;99.90;;;;;;4981444;28;21032;-52
2021/12/28 02:38:07;;;;;;;11.47;3.40;;;10.60;99.90;;;;;;4980952;28;20198;-54
2021/12/28 02:40:35;;;;;;;8.87;3.10;;;10.70;99.90;;;;;;4981562;28;21155;-53
2021/12/28 02:43:03;;;;;;;14.83;3.57;;;10.70;99.90;;;;;;4981703;28;20421;-53
2021/12/28 02:45:33;;;;;;;8.83;3.30;;;10.70;99.90;;;;;;4979941;28;20500;-54
2021/12/28 02:47:59;;;;;;;10.00;3.90;;;10.70;99.90;;;;;;4979022;28;20801;-51
2021/12/28 02:50:26;;;;;;;6.10;3.80;;;10.60;99.90;;;;;;4980642;28;20441;-50
2021/12/28 02:52:53;;;;;;;5.63;2.83;;;10.70;99.90;;;;;;4981058;28;20515;-51
2021/12/28 02:55:21;;;;;;;6.13;3.00;;;10.70;99.90;;;;;;4981644;28;20527;-52
2021/12/28 02:57:56;;;;;;;6.07;3.10;;;10.70;99.90;;;;;;4981245;28;20456;-50
2021/12/28 03:00:32;;;;;;;13.37;3.60;;;10.50;99.90;;;;;;4981564;28;20441;-54
2021/12/28 03:02:58;;;;;;;9.33;3.20;;;10.60;99.90;;;;;;4966233;28;20428;-53
2021/12/28 03:05:24;;;;;;;12.10;3.40;;;10.60;99.90;;;;;;4978785;28;20464;-53
2021/12/28 03:07:49;;;;;;;13.20;3.50;;;10.60;99.90;;;;;;4981394;28;20553;-50
2021/12/28 03:10:15;;;;;;;14.93;3.70;;;10.40;99.90;;;;;;4982075;28;20563;-54
2021/12/28 03:12:41;;;;;;;3.90;2.47;;;10.50;99.90;;;;;;4981445;28;20190;-50
2021/12/28 03:15:07;;;;;;;7.47;3.60;;;10.50;99.90;;;;;;4980734;28;20217;-54
2021/12/28 03:17:32;;;;;;;14.43;3.43;;;10.60;99.90;;;;;;4979733;28;20679;-50
2021/12/28 03:19:58;;;;;;;6.60;4.67;;;10.60;99.90;;;;;;4981054;28;20527;-51
2021/12/28 03:22:23;;;;;;;15.93;4.20;;;10.60;99.90;;;;;;4981837;28;20182;-50
2021/12/28 03:24:49;;;;;;;12.70;3.30;;;10.60;99.90;;;;;;4979742;28;20217;-52
2021/12/28 03:27:15;;;;;;;7.80;3.17;;;10.60;99.90;;;;;;4979859;28;20189;-49
2021/12/28 03:29:40;;;;;;;8.30;3.13;;;10.50;99.90;;;;;;4980242;28;20667;-55
2021/12/28 03:32:06;;;;;;;12.03;3.50;;;10.60;99.90;;;;;;4982000;28;20182;-50
2021/12/28 03:34:32;;;;;;;14.40;6.23;;;10.50;99.90;;;;;;4980411;28;20297;-53
2021/12/28 03:36:58;;;;;;;12.37;5.77;;;10.60;99.90;;;;;;4980830;28;20479;-52
2021/12/28 03:39:23;;;;;;;8.73;4.50;;;10.70;99.90;;;;;;4983954;28;20193;-55
2021/12/28 03:41:49;;;;;;;20.07;4.50;;;10.60;99.90;;;;;;4980679;28;20247;-52
2021/12/28 03:44:14;;;;;;;10.13;3.50;;;10.60;99.90;;;;;;4967041;28;20559;-53
2021/12/28 03:46:40;;;;;;;5.20;3.23;;;10.60;99.90;;;;;;4980331;28;20231;-53
2021/12/28 03:49:06;;;;;;;9.07;3.80;;;10.60;99.90;;;;;;4979476;28;20204;-51
2021/12/28 03:51:32;;;;;;;8.60;2.97;;;10.60;99.90;;;;;;4982265;28;20197;-52
2021/12/28 03:53:58;;;;;;;8.90;2.70;;;10.60;99.90;;;;;;4981027;28;20205;-53
2021/12/28 03:56:24;;;;;;;9.43;3.30;;;10.60;99.90;;;;;;4979247;28;20827;-51
2021/12/28 03:58:51;;;;;;;14.30;4.50;;;10.60;99.90;;;;;;4980591;28;20436;-51
2021/12/28 04:01:25;;;;;;;12.90;3.63;;;10.70;99.90;;;;;;4975641;28;20451;-51
2021/12/28 04:03:50;;;;;;;9.87;2.77;;;10.70;99.90;;;;;;4982192;28;20437;-54
2021/12/28 04:06:19;;;;;;;8.20;2.40;;;10.60;99.90;;;;;;4980008;28;20452;-54
2021/12/28 04:08:44;;;;;;;5.20;2.80;;;10.60;99.90;;;;;;4981461;28;20178;-51
2021/12/28 04:11:28;;;;;;;14.13;3.17;;;10.70;99.90;;;;;;4981749;28;20980;-53
2021/12/28 04:13:58;;;;;;;15.33;3.00;;;10.70;99.90;;;;;;4981121;28;20190;-54
2021/12/28 04:16:23;;;;;;;9.43;2.80;;;10.80;99.90;;;;;;4980690;28;20524;-53
2021/12/28 04:18:51;;;;;;;4.27;2.33;;;10.70;99.90;;;;;;4983498;28;20429;-53
2021/12/28 04:21:17;;;;;;;8.47;3.23;;;10.80;99.90;;;;;;4977771;28;20204;-52
2021/12/28 04:23:43;;;;;;;4.40;2.23;;;10.80;99.90;;;;;;4981550;28;20434;-56
2021/12/28 04:26:09;;;;;;;8.80;2.87;;;10.90;99.90;;;;;;4980441;28;20224;-55
2021/12/28 04:28:34;;;;;;;7.47;2.60;;;10.80;99.90;;;;;;4983893;28;20448;-51
2021/12/28 04:31:00;;;;;;;6.33;1.97;;;10.70;99.90;;;;;;4982405;28;20433;-55
2021/12/28 04:33:26;;;;;;;6.20;2.27;;;10.70;99.90;;;;;;4978431;28;20194;-52
2021/12/28 04:35:52;;;;;;;7.93;2.60;;;10.60;99.90;;;;;;4981021;28;20483;-54
2021/12/28 04:38:17;;;;;;;7.17;1.83;;;10.70;99.90;;;;;;4979566;28;20248;-53
2021/12/28 04:40:43;;;;;;;7.10;1.90;;;10.90;99.90;;;;;;4981055;28;20189;-53
2021/12/28 04:43:11;;;;;;;8.30;2.30;;;10.90;99.90;;;;;;4981941;28;20182;-51
2021/12/28 04:45:37;;;;;;;9.37;2.20;;;11.00;99.90;;;;;;4978212;28;20975;-51
2021/12/28 04:48:04;;;;;;;7.70;3.50;;;11.00;99.90;;;;;;4980400;28;20440;-51
2021/12/28 04:50:37;;;;;;;9.03;2.00;;;10.80;99.90;;;;;;4977020;28;20445;-51
2021/12/28 04:53:08;;;;;;;16.13;3.03;;;10.80;99.90;;;;;;4969793;28;20842;-52
2021/12/28 04:55:34;;;;;;;7.77;2.10;;;10.80;99.90;;;;;;4984481;28;20460;-52
2021/12/28 04:57:59;;;;;;;7.73;2.73;;;10.80;99.90;;;;;;4981052;28;20440;-51
2021/12/28 05:00:25;;;;;;;3.90;1.70;;;10.70;99.90;;;;;;4986644;28;20189;-55
2021/12/28 05:02:51;;;;;;;3.80;1.80;;;10.80;99.90;;;;;;4984508;28;20185;-54
2021/12/28 05:05:16;;;;;;;5.33;1.67;;;10.80;99.90;;;;;;4983024;28;20267;-56
2021/12/28 05:07:42;;;;;;;2.47;1.43;;;10.80;99.90;;;;;;4983075;28;20689;-54
2021/12/28 05:10:09;;;;;;;6.07;1.57;;;10.70;99.90;;;;;;4983760;28;20188;-52
2021/12/28 05:12:35;;;;;;;4.10;1.90;;;10.70;99.90;;;;;;4984216;28;20193;-51
2021/12/28 05:15:02;;;;;;;2.23;1.20;;;10.70;99.90;;;;;;4983257;28;20472;-54
2021/12/28 05:17:28;;;;;;;2.50;1.40;;;10.70;99.90;;;;;;4983881;28;20456;-55
2021/12/28 05:19:54;;;;;;;5.80;1.37;;;10.70;99.90;;;;;;4983977;28;20429;-54
2021/12/28 05:22:20;;;;;;;1.80;1.30;;;10.70;99.90;;;;;;4982725;28;20225;-53
2021/12/28 05:24:45;;;;;;;2.10;1.20;;;10.70;99.90;;;;;;4983277;28;20475;-53
2021/12/28 05:27:11;;;;;;;3.20;1.30;;;10.60;99.90;;;;;;4982267;28;20269;-52
2021/12/28 05:29:36;;;;;;;3.07;1.40;;;10.60;99.90;;;;;;4983810;28;20190;-52
2021/12/28 05:32:02;;;;;;;5.03;1.30;;;10.60;99.90;;;;;;4984195;28;20190;-55
2021/12/28 05:34:28;;;;;;;3.60;1.70;;;10.70;99.90;;;;;;4982416;28;20209;-51
2021/12/28 05:36:53;;;;;;;2.70;1.33;;;10.80;99.90;;;;;;4985174;28;22167;-51
2021/12/28 05:39:19;;;;;;;2.07;1.43;;;10.80;99.90;;;;;;4982727;28;20193;-49
2021/12/28 05:41:45;;;;;;;1.67;1.10;;;10.70;99.90;;;;;;4984798;28;20256;-51
2021/12/28 05:44:11;;;;;;;5.03;1.80;;;10.70;99.90;;;;;;4982148;28;20346;-52
2021/12/28 05:46:36;;;;;;;3.67;1.43;;;10.60;99.90;;;;;;4981660;28;20198;-50
2021/12/28 05:49:03;;;;;;;2.03;1.20;;;10.40;99.90;;;;;;4980184;28;20200;-52
2021/12/28 05:51:28;;;;;;;2.70;1.10;;;10.50;99.90;;;;;;4968404;28;20187;-51
2021/12/28 05:53:54;;;;;;;2.03;1.10;;;10.60;99.90;;;;;;4981871;28;20453;-55
2021/12/28 05:56:20;;;;;;;3.13;1.20;;;10.70;99.90;;;;;;4981702;28;20213;-55
2021/12/28 05:58:45;;;;;;;3.00;1.10;;;10.60;99.90;;;;;;4983501;28;20189;-50
2021/12/28 06:01:11;;;;;;;1.83;1.20;;;10.50;99.90;;;;;;4984339;28;20265;-51
2021/12/28 06:03:37;;;;;;;3.93;1.20;;;10.60;99.90;;;;;;4982656;28;20624;-52
2021/12/28 06:06:02;;;;;;;1.80;1.00;;;10.60;99.90;;;;;;4977841;28;20209;-54
2021/12/28 06:08:28;;;;;;;2.80;1.20;;;10.50;99.90;;;;;;4980956;28;20190;-51
2021/12/28 06:10:53;;;;;;;4.10;1.10;;;10.50;99.90;;;;;;4980993;28;20197;-55
2021/12/28 06:13:19;;;;;;;3.97;1.60;;;10.60;99.90;;;;;;4981060;28;20443;-53
2021/12/28 06:15:45;;;;;;;1.77;1.27;;;10.50;99.90;;;;;;4982389;28;20316;-53
2021/12/28 06:18:10;;;;;;;2.17;1.30;;;10.50;99.90;;;;;;4983628;28;20463;-53
2021/12/28 06:20:36;;;;;;;3.97;1.70;;;10.70;99.90;;;;;;4984407;28;20528;-51
2021/12/28 06:23:02;;;;;;;4.67;1.60;;;10.80;99.90;;;;;;4963741;28;20293;-53
2021/12/28 06:25:28;;;;;;;2.10;1.50;;;10.90;99.90;;;;;;4983513;28;20578;-53
2021/12/28 06:27:53;;;;;;;4.87;2.30;;;11.00;99.90;;;;;;4981541;28;20444;-52
2021/12/28 06:30:19;;;;;;;3.43;1.53;;;11.00;99.90;;;;;;4981445;28;20200;-51
2021/12/28 06:32:45;;;;;;;2.77;1.60;;;10.90;99.90;;;;;;4983462;28;20186;-53
2021/12/28 06:35:11;;;;;;;2.43;1.40;;;11.10;99.90;;;;;;4978974;28;20594;-50
2021/12/28 06:37:37;;;;;;;1.67;1.33;;;11.00;99.90;;;;;;4982403;28;20299;-54
2021/12/28 06:40:06;;;;;;;1.87;1.30;;;11.10;99.90;;;;;;4982335;28;20476;-54
2021/12/28 06:42:32;;;;;;;2.33;1.37;;;11.10;99.90;;;;;;4982158;28;20444;-50
2021/12/28 06:44:58;;;;;;;2.17;1.40;;;11.00;99.90;;;;;;4985488;28;20459;-51
2021/12/28 06:47:24;;;;;;;2.63;1.20;;;11.00;99.90;;;;;;4959974;28;20444;-51
2021/12/28 06:49:50;;;;;;;2.60;1.20;;;10.90;99.90;;;;;;4963443;28;21146;-50
2021/12/28 06:52:15;;;;;;;4.50;1.10;;;10.90;99.90;;;;;;4982605;28;20260;-54
2021/12/28 06:54:41;;;;;;;2.60;1.00;;;10.90;99.90;;;;;;4983145;28;20695;-54
2021/12/28 06:57:09;;;;;;;1.87;1.00;;;10.90;99.90;;;;;;4982496;28;20210;-51
2021/12/28 06:59:37;;;;;;;1.23;0.90;;;10.90;99.90;;;;;;4983862;28;20189;-50
2021/12/28 07:02:04;;;;;;;1.30;1.00;;;10.90;99.90;;;;;;4982013;28;20635;-54
2021/12/28 07:04:30;;;;;;;2.67;1.10;;;10.90;99.90;;;;;;4982669;28;20456;-49
2021/12/28 07:06:56;;;;;;;1.40;1.17;;;11.00;99.90;;;;;;4982008;28;20849;-52
2021/12/28 07:09:21;;;;;;;1.10;0.80;;;11.00;99.90;;;;;;4982634;28;20279;-51
2021/12/28 07:11:47;;;;;;;2.23;1.10;;;11.00;99.90;;;;;;4980882;28;20680;-55
2021/12/28 07:14:13;;;;;;;2.20;1.00;;;11.10;99.90;;;;;;4979548;28;20192;-51
2021/12/28 07:16:38;;;;;;;1.40;0.90;;;11.10;99.90;;;;;;4981618;28;20212;-52
2021/12/28 07:19:09;;;;;;;1.30;0.87;;;11.10;99.90;;;;;;4981479;28;20189;-51
2021/12/28 07:21:39;;;;;;;1.33;1.03;;;11.10;99.90;;;;;;4981983;28;20296;-56
2021/12/28 07:24:06;;;;;;;1.30;1.00;;;11.10;99.90;;;;;;4980673;28;20463;-55
2021/12/28 07:26:32;;;;;;;1.93;1.10;;;11.10;99.90;;;;;;4979460;28;20449;-54
2021/12/28 07:28:58;;;;;;;1.30;1.00;;;11.20;99.90;;;;;;4980683;28;20466;-52
2021/12/28 07:31:24;;;;;;;1.40;1.10;;;11.10;99.90;;;;;;4976448;28;20453;-51
2021/12/28 07:33:49;;;;;;;2.40;0.90;;;11.00;99.90;;;;;;4979587;28;20216;-52
2021/12/28 07:36:15;;;;;;;1.30;0.90;;;10.90;99.90;;;;;;4980742;28;20216;-53
2021/12/28 07:38:41;;;;;;;1.20;0.90;;;10.90;99.90;;;;;;4980125;28;20655;-54
2021/12/28 07:41:07;;;;;;;1.57;0.80;;;10.90;99.90;;;;;;4983540;28;20424;-54
2021/12/28 07:43:32;;;;;;;1.20;0.90;;;10.90;99.90;;;;;;4978938;28;20185;-54
2021/12/28 07:45:58;;;;;;;1.30;0.90;;;10.90;99.90;;;;;;4980689;28;20267;-56
2021/12/28 07:48:24;;;;;;;1.10;0.90;;;10.90;99.90;;;;;;4979793;28;20187;-54
2021/12/28 07:50:50;;;;;;;1.30;0.90;;;10.80;99.90;;;;;;4965436;28;20374;-53
2021/12/28 07:53:15;;;;;;;1.30;1.00;;;10.80;99.90;;;;;;4983210;28;20182;-52
2021/12/28 07:55:41;;;;;;;1.70;0.93;;;10.70;99.90;;;;;;4980288;28;20465;-55
2021/12/28 07:58:07;;;;;;;1.20;0.90;;;10.70;99.90;;;;;;4983131;28;20198;-54
2021/12/28 08:00:33;;;;;;;1.20;0.90;;;10.60;99.90;;;;;;4980207;28;20208;-51
2021/12/28 08:03:03;;;;;;;1.77;1.00;;;10.60;99.90;;;;;;4981345;28;20440;-53
2021/12/28 08:05:30;;;;;;;1.20;0.83;;;10.60;99.90;;;;;;4983772;28;20460;-52
2021/12/28 08:07:55;;;;;;;1.30;1.00;;;10.60;99.90;;;;;;4978113;28;20525;-51
2021/12/28 08:10:22;;;;;;;1.20;1.00;;;10.60;99.90;;;;;;4981353;28;20532;-53
2021/12/28 08:12:49;;;;;;;1.10;0.90;;;10.70;99.90;;;;;;4980151;28;20174;-55
2021/12/28 08:15:15;;;;;;;1.63;1.10;;;10.70;99.90;;;;;;4964338;28;20499;-49
2021/12/28 08:17:41;;;;;;;1.40;1.07;;;10.70;99.90;;;;;;4981408;28;21026;-55
2021/12/28 08:20:09;;;;;;;1.97;1.00;;;10.70;99.90;;;;;;4979204;28;20444;-55
2021/12/28 08:22:36;;;;;;;1.40;0.97;;;10.80;99.90;;;;;;4980053;28;20186;-54
2021/12/28 08:25:03;;;;;;;1.20;0.90;;;10.80;99.90;;;;;;4979398;28;20543;-53
2021/12/28 08:27:29;;;;;;;1.30;0.90;;;10.90;99.90;;;;;;4984576;28;20865;-54
2021/12/28 08:29:56;;;;;;;1.43;1.00;;;10.90;99.90;;;;;;4982113;28;20548;-54
2021/12/28 08:32:22;;;;;;;1.20;0.90;;;10.90;99.90;;;;;;4965885;28;20561;-53
2021/12/28 08:34:47;;;;;;;2.13;0.97;;;10.90;99.90;;;;;;4983821;28;20544;-53
2021/12/28 08:37:13;;;;;;;1.37;1.00;;;11.00;99.90;;;;;;4984416;28;20463;-55
2021/12/28 08:39:39;;;;;;;1.97;1.10;;;11.00;99.90;;;;;;4982134;28;20189;-53
2021/12/28 08:42:05;;;;;;;1.67;1.00;;;10.90;99.90;;;;;;4983906;28;20182;-51
2021/12/28 08:44:31;;;;;;;1.37;1.00;;;10.90;99.90;;;;;;4981133;28;20448;-52
2021/12/28 08:46:56;;;;;;;1.30;1.00;;;10.90;99.90;;;;;;4962568;28;20445;-52
2021/12/28 08:49:24;;;;;;;2.50;1.03;;;10.90;99.90;;;;;;4965662;28;20201;-51
2021/12/28 08:51:49;;;;;;;1.33;1.10;;;10.80;99.90;;;;;;4983770;28;20265;-55
2021/12/28 08:54:15;;;;;;;1.50;1.10;;;10.80;99.90;;;;;;4982754;28;20425;-51
2021/12/28 08:56:41;;;;;;;1.70;1.00;;;10.80;99.90;;;;;;4983050;28;20680;-53
2021/12/28 08:59:06;;;;;;;2.20;1.20;;;10.80;99.90;;;;;;4983635;28;20186;-54
2021/12/28 09:01:32;;;;;;;2.23;1.07;;;10.90;99.90;;;;;;4983129;28;20267;-51
2021/12/28 09:03:58;;;;;;;4.07;1.07;;;10.90;99.90;;;;;;4981722;28;20182;-51
2021/12/28 09:06:24;;;;;;;2.33;0.90;;;10.90;99.90;;;;;;4984385;28;20229;-55
2021/12/28 09:08:49;;;;;;;1.50;1.00;;;10.90;99.90;;;;;;4983074;28;20178;-52
2021/12/28 09:11:15;;;;;;;1.93;1.00;;;11.00;99.90;;;;;;4962580;28;20213;-51
2021/12/28 09:13:41;;;;;;;1.33;1.00;;;10.90;99.90;;;;;;4982491;28;20193;-54
2021/12/28 09:16:07;;;;;;;2.57;1.10;;;10.90;99.90;;;;;;4983121;28;20229;-53
2021/12/28 09:18:32;;;;;;;1.10;0.87;;;11.00;99.90;;;;;;4984221;28;20178;-52
2021/12/28 09:20:58;;;;;;;1.30;0.90;;;11.00;99.90;;;;;;4982861;28;20239;-55
2021/12/28 09:23:24;;;;;;;1.40;1.10;;;11.00;99.90;;;;;;4981850;28;20186;-55
2021/12/28 09:25:50;;;;;;;1.20;1.03;;;11.10;99.90;;;;;;4965377;28;20483;-58
2021/12/28 09:28:15;;;;;;;1.20;0.90;;;11.20;99.90;;;;;;4974310;28;20196;-57
2021/12/28 09:30:43;;;;;;;1.70;1.03;;;11.30;99.90;;;;;;4949865;28;20491;-59
2021/12/28 09:33:10;;;;;;;3.00;1.40;;;11.30;99.90;;;;;;4980490;28;20603;-51
2021/12/28 09:35:38;;;;;;;1.30;1.10;;;11.40;99.90;;;;;;4980800;28;20707;-53
2021/12/28 09:38:04;;;;;;;1.50;1.00;;;11.40;99.90;;;;;;4982904;28;20435;-52
2021/12/28 09:40:32;;;;;;;2.60;1.73;;;11.50;99.90;;;;;;4983616;28;20503;-54
2021/12/28 09:42:58;;;;;;;1.60;1.20;;;11.50;99.90;;;;;;4973859;28;20431;-52
2021/12/28 09:45:24;;;;;;;1.40;1.20;;;11.50;99.90;;;;;;4974298;28;20458;-56
2021/12/28 09:47:50;;;;;;;4.23;2.40;;;11.50;99.90;;;;;;4969999;28;20835;-54
2021/12/28 09:50:16;;;;;;;1.50;1.20;;;11.60;99.90;;;;;;4971312;28;20836;-55
2021/12/28 09:52:43;;;;;;;1.40;1.20;;;11.60;99.90;;;;;;4979722;28;20245;-56
2021/12/28 09:55:13;;;;;;;1.90;1.00;;;11.60;99.90;;;;;;4979811;28;20498;-55
2021/12/28 09:57:40;;;;;;;2.00;1.40;;;11.60;99.90;;;;;;4957208;28;20425;-53
2021/12/28 10:00:07;;;;;;;1.40;1.10;;;11.60;99.90;;;;;;4964211;28;20461;-50
2021/12/28 10:02:35;;;;;;;1.20;1.10;;;11.60;99.90;;;;;;4985122;28;20437;-53
2021/12/28 10:05:05;;;;;;;1.70;1.07;;;11.60;99.90;;;;;;4978875;28;20495;-57
2021/12/28 10:07:36;;;;;;;1.73;1.17;;;11.60;99.90;;;;;;4983378;28;20527;-55
2021/12/28 10:10:06;;;;;;;1.40;1.20;;;11.60;99.90;;;;;;4981057;28;20434;-57
2021/12/28 10:12:31;;;;;;;1.67;1.40;;;11.50;99.90;;;;;;4980845;28;20455;-56
2021/12/28 10:15:01;;;;;;;1.40;1.17;;;11.60;99.90;;;;;;4975769;28;20454;-57
2021/12/28 10:17:30;;;;;;;1.60;1.17;;;11.60;99.90;;;;;;4978095;28;20186;-56
2021/12/28 10:19:56;;;;;;;1.50;1.20;;;11.50;99.90;;;;;;4983034;28;20436;-56
2021/12/28 10:22:37;;;;;;;1.23;1.03;;;11.50;99.90;;;;;;4981931;28;20459;-56
2021/12/28 10:25:12;;;;;;;3.43;1.10;;;11.50;99.90;;;;;;4982028;28;20843;-56
2021/12/28 10:27:43;;;;;;;1.67;1.17;;;11.40;99.90;;;;;;4982556;28;20444;-57
2021/12/28 10:30:14;;;;;;;1.50;1.10;;;11.30;99.90;;;;;;4980370;28;20449;-56
2021/12/28 10:32:45;;;;;;;1.30;1.10;;;11.30;99.90;;;;;;4983190;28;20459;-55
2021/12/28 10:35:21;;;;;;;3.00;1.10;;;11.30;99.90;;;;;;4979678;28;20483;-58
2021/12/28 10:37:54;;;;;;;2.30;1.10;;;11.20;99.90;;;;;;4982139;28;20934;-57
2021/12/28 10:40:46;;;;;;;1.47;1.27;;;11.20;99.90;;;;;;4980253;28;20468;-57
2021/12/28 10:43:17;;;;;;;1.30;1.10;;;11.30;99.90;;;;;;4981971;28;20802;-55
2021/12/28 10:46:00;;;;;;;1.60;1.10;;;11.30;99.90;;;;;;4980660;28;20821;-58
2021/12/28 10:48:35;;;;;;;1.40;1.10;;;11.20;99.90;;;;;;4963884;28;21112;-58
2021/12/28 10:51:15;;;;;;;1.60;1.10;;;11.20;99.90;;;;;;4984832;28;22245;-57
2021/12/28 10:53:55;;;;;;;2.03;1.23;;;11.20;99.90;;;;;;4965383;28;20437;-56
2021/12/28 10:56:22;;;;;;;1.20;1.10;;;11.20;99.90;;;;;;4983456;28;20879;-58
2021/12/28 10:58:50;;;;;;;2.13;1.03;;;11.20;99.90;;;;;;4966128;28;20442;-53
2021/12/28 11:01:19;;;;;;;1.60;1.27;;;11.20;99.90;;;;;;4977417;28;20567;-55
2021/12/28 11:03:47;;;;;;;6.60;1.13;;;11.30;99.90;;;;;;4981390;28;20441;-53
2021/12/28 11:06:20;;;;;;;3.70;1.30;;;11.40;99.90;;;;;;4980456;28;20461;-56
2021/12/28 11:08:49;;;;;;;2.50;1.30;;;11.40;99.90;;;;;;4981006;28;20456;-54
2021/12/28 11:11:19;;;;;;;1.30;1.10;;;11.50;99.90;;;;;;4963462;28;20465;-53
2021/12/28 11:13:46;;;;;;;1.80;1.10;;;11.50;99.90;;;;;;4978449;28;21055;-55
2021/12/28 11:16:15;;;;;;;1.30;1.07;;;11.60;99.90;;;;;;4975426;28;20476;-57
2021/12/28 11:18:42;;;;;;;1.50;1.10;;;11.70;99.90;;;;;;4978821;28;20540;-68
2021/12/28 11:21:16;;;;;;;1.30;1.13;;;11.70;99.90;;;;;;4975152;28;20455;-66
2021/12/28 11:23:43;;;;;;;1.30;1.10;;;11.80;99.90;;;;;;4975815;28;20862;-66
2021/12/28 11:26:25;;;;;;;1.50;0.97;;;11.90;99.90;;;;;;4974663;28;20902;-65
2021/12/28 11:29:01;;;;;;;1.40;1.20;;;11.90;99.90;;;;;;4978783;28;20468;-65
2021/12/28 11:31:41;;;;;;;2.03;1.30;;;11.90;99.90;;;;;;4964738;28;20448;-65
2021/12/28 11:34:19;;;;;;;1.80;1.03;;;12.00;99.90;;;;;;4980689;28;20441;-65
2021/12/28 11:36:48;;;;;;;2.30;1.40;;;12.10;99.90;;;;;;4979503;28;20473;-66
2021/12/28 11:39:17;;;;;;;1.47;1.10;;;12.20;99.90;;;;;;4980499;28;20906;-65
2021/12/28 11:41:44;;;;;;;1.60;1.10;;;12.20;99.90;;;;;;4972725;28;20431;-64
2021/12/28 11:44:10;;;;;;;1.80;1.20;;;12.30;99.90;;;;;;4980904;28;21015;-64
2021/12/28 11:46:36;;;;;;;1.40;1.07;;;12.30;99.90;;;;;;4983678;28;20581;-65
2021/12/28 11:49:05;;;;;;;1.80;1.30;;;12.40;99.90;;;;;;4979059;28;20492;-65
2021/12/28 11:51:32;;;;;;;1.60;1.20;;;12.40;99.90;;;;;;4969894;28;21536;-65
2021/12/28 11:54:03;;;;;;;1.60;1.10;;;12.50;99.90;;;;;;4979723;28;20448;-65
2021/12/28 11:56:31;;;;;;;1.40;1.10;;;12.50;99.90;;;;;;4980569;28;20901;-68
2021/12/28 11:59:02;;;;;;;1.60;1.20;;;12.50;99.90;;;;;;4979117;28;20495;-67
2021/12/28 12:02:01;;;;;;;1.80;1.13;;;12.50;99.90;;;;;;4974145;28;21329;-68
2021/12/28 12:04:29;;;;;;;1.80;1.07;;;12.50;99.90;;;;;;4931984;28;20924;-66
2021/12/28 12:07:01;;;;;;;1.70;1.20;;;12.40;99.90;;;;;;4967415;28;20467;-65
2021/12/28 12:09:28;;;;;;;1.40;1.10;;;12.30;99.90;;;;;;4975310;28;20536;-59
2021/12/28 12:12:15;;;;;;;1.47;1.07;;;12.20;99.90;;;;;;4972255;28;20450;-59
2021/12/28 12:15:00;;;;;;;2.60;1.10;;;12.20;99.90;;;;;;4968970;28;20656;-59
2021/12/28 12:17:44;;;;;;;1.67;1.13;;;12.00;99.90;;;;;;4972637;28;21009;-59
2021/12/28 12:20:30;;;;;;;1.70;1.10;;;12.00;99.90;;;;;;4973446;28;20441;-58
2021/12/28 12:23:06;;;;;;;1.70;1.20;;;11.90;99.90;;;;;;4974383;28;20447;-59
2021/12/28 12:25:42;;;;;;;1.93;1.20;;;11.90;99.90;;;;;;4977773;28;20486;-58
2021/12/28 12:28:10;;;;;;;2.07;1.30;;;11.80;99.90;;;;;;4968378;28;20450;-58
2021/12/28 12:30:54;;;;;;;1.90;1.67;;;11.70;99.90;;;;;;4961276;28;20450;-59
2021/12/28 12:33:20;;;;;;;1.40;1.20;;;11.70;99.90;;;;;;4974781;28;20448;-57
2021/12/28 12:35:52;;;;;;;1.40;1.30;;;11.70;99.90;;;;;;4970239;28;20731;-58
2021/12/28 12:38:17;;;;;;;1.40;1.20;;;11.70;99.90;;;;;;4970075;28;20452;-58
2021/12/28 12:41:01;;;;;;;1.50;1.30;;;11.60;99.90;;;;;;4972605;28;20990;-58
2021/12/28 12:43:36;;;;;;;1.60;1.30;;;11.60;99.90;;;;;;4961077;28;20217;-58
2021/12/28 12:46:09;;;;;;;2.00;1.40;;;11.70;99.90;;;;;;4970159;28;20471;-58
2021/12/28 12:48:39;;;;;;;2.53;1.23;;;11.70;99.90;;;;;;4968467;28;20822;-58
2021/12/28 12:51:48;;;;;;;1.73;1.30;;;11.80;99.90;;;;;;4968499;28;20462;-58